sensor_id;sensor_type;location;lat;lon;timestamp;pressure;altitude;pressure_sealevel;temperature;humidity
6835;BME280;3455;42.150;24.734;2023-02-11T00:00:53;65282.72;;;-0.47;46.73
6835;BME280;3455;42.150;24.734;2023-02-11T00:03:20;65344.75;;;-0.14;46.46
6835;BME280;3455;42.150;24.734;2023-02-11T00:05:56;65325.03;;;-0.09;46.93
6835;BME280;3455;42.150;24.734;2023-02-11T00:08:22;65244.22;;;-0.73;47.95
6835;BME280;3455;42.150;24.734;2023-02-11T00:10:52;65274.13;;;-0.86;48.81
6835;BME280;3455;42.150;24.734;2023-02-11T00:13:20;65258.91;;;-0.64;48.40
6835;BME280;3455;42.150;24.734;2023-02-11T00:15:46;65264.78;;;-0.54;48.14
6835;BME280;3455;42.150;24.734;2023-02-11T00:18:13;65336.69;;;-0.08;47.64
6835;BME280;3455;42.150;24.734;2023-02-11T00:20:40;65366.00;;;-0.08;47.46
6835;BME280;3455;42.150;24.734;2023-02-11T00:23:07;65324.59;;;-0.36;47.68
6835;BME280;3455;42.150;24.734;2023-02-11T00:25:37;65299.78;;;-0.50;48.10
6835;BME280;3455;42.150;24.734;2023-02-11T00:28:06;65323.63;;;-0.33;47.58
6835;BME280;3455;42.150;24.734;2023-02-11T00:30:32;65213.44;;;-1.14;49.36
6835;BME280;3455;42.150;24.734;2023-02-11T00:32:59;65240.41;;;-1.16;49.34
6835;BME280;3455;42.150;24.734;2023-02-11T00:35:26;65241.44;;;-0.89;49.25
6835;BME280;3455;42.150;24.734;2023-02-11T00:37:53;65244.38;;;-1.06;49.24
6835;BME280;3455;42.150;24.734;2023-02-11T00:40:20;65316.44;;;-0.55;48.48
6835;BME280;3455;42.150;24.734;2023-02-11T00:42:46;65341.75;;;-0.21;47.91
6835;BME280;3455;42.150;24.734;2023-02-11T00:45:15;65251.25;;;-0.62;48.98
6835;BME280;3455;42.150;24.734;2023-02-11T00:47:41;65303.81;;;-0.53;48.29
6835;BME280;3455;42.150;24.734;2023-02-11T00:50:08;65248.94;;;-0.64;48.57
6835;BME280;3455;42.150;24.734;2023-02-11T00:52:35;65228.41;;;-0.83;48.97
6835;BME280;3455;42.150;24.734;2023-02-11T00:55:02;65229.38;;;-0.86;49.56
6835;BME280;3455;42.150;24.734;2023-02-11T00:57:28;65293.97;;;-0.73;48.76
6835;BME280;3455;42.150;24.734;2023-02-11T00:59:55;65199.56;;;-1.31;49.88
6835;BME280;3455;42.150;24.734;2023-02-11T01:02:23;65203.28;;;-1.05;50.41
6835;BME280;3455;42.150;24.734;2023-02-11T01:04:50;65271.94;;;-0.70;49.45
6835;BME280;3455;42.150;24.734;2023-02-11T01:07:16;65223.66;;;-0.91;49.35
6835;BME280;3455;42.150;24.734;2023-02-11T01:09:43;65290.09;;;-0.65;49.09
6835;BME280;3455;42.150;24.734;2023-02-11T01:12:10;65251.78;;;-0.93;50.02
6835;BME280;3455;42.150;24.734;2023-02-11T01:14:36;65254.88;;;-0.99;49.85
6835;BME280;3455;42.150;24.734;2023-02-11T01:17:04;65259.75;;;-0.79;50.56
6835;BME280;3455;42.150;24.734;2023-02-11T01:19:32;65254.47;;;-0.95;50.58
6835;BME280;3455;42.150;24.734;2023-02-11T01:21:59;65292.44;;;-0.76;50.21
6835;BME280;3455;42.150;24.734;2023-02-11T01:24:26;65281.13;;;-0.75;50.52
6835;BME280;3455;42.150;24.734;2023-02-11T01:26:52;65205.50;;;-1.28;52.41
6835;BME280;3455;42.150;24.734;2023-02-11T01:29:19;65229.03;;;-0.95;51.74
6835;BME280;3455;42.150;24.734;2023-02-11T01:31:46;65223.97;;;-1.13;51.71
6835;BME280;3455;42.150;24.734;2023-02-11T01:34:13;65216.75;;;-1.29;52.16
6835;BME280;3455;42.150;24.734;2023-02-11T01:36:41;65248.25;;;-1.21;52.20
6835;BME280;3455;42.150;24.734;2023-02-11T01:39:08;65207.09;;;-1.44;51.65
6835;BME280;3455;42.150;24.734;2023-02-11T01:41:35;65178.00;;;-1.77;52.59
6835;BME280;3455;42.150;24.734;2023-02-11T01:44:21;65212.25;;;-1.46;52.25
6835;BME280;3455;42.150;24.734;2023-02-11T01:46:47;65244.59;;;-1.08;50.87
6835;BME280;3455;42.150;24.734;2023-02-11T01:49:18;65274.69;;;-0.86;50.38
6835;BME280;3455;42.150;24.734;2023-02-11T01:51:51;65240.38;;;-1.03;50.69
6835;BME280;3455;42.150;24.734;2023-02-11T01:54:23;65204.94;;;-1.35;51.53
6835;BME280;3455;42.150;24.734;2023-02-11T01:57:11;65151.28;;;-1.83;52.34
6835;BME280;3455;42.150;24.734;2023-02-11T01:59:54;65184.03;;;-1.63;51.80
6835;BME280;3455;42.150;24.734;2023-02-11T02:02:26;65215.63;;;-1.30;51.11
6835;BME280;3455;42.150;24.734;2023-02-11T02:05:00;65235.44;;;-1.16;50.53
6835;BME280;3455;42.150;24.734;2023-02-11T02:07:32;65221.09;;;-1.61;51.50
6835;BME280;3455;42.150;24.734;2023-02-11T02:10:05;65195.75;;;-1.30;51.41
6835;BME280;3455;42.150;24.734;2023-02-11T02:12:33;65214.16;;;-1.02;50.18
6835;BME280;3455;42.150;24.734;2023-02-11T02:18:17;65220.25;;;-1.39;51.59
6835;BME280;3455;42.150;24.734;2023-02-11T02:21:26;65236.03;;;-1.16;50.68
6835;BME280;3455;42.150;24.734;2023-02-11T02:27:10;65255.38;;;-1.30;50.63
6835;BME280;3455;42.150;24.734;2023-02-11T02:30:15;65232.81;;;-1.28;50.85
6835;BME280;3455;42.150;24.734;2023-02-11T02:32:57;65273.75;;;-0.89;49.00
6835;BME280;3455;42.150;24.734;2023-02-11T02:35:34;65258.97;;;-0.77;49.31
6835;BME280;3455;42.150;24.734;2023-02-11T02:38:08;65189.75;;;-1.13;49.85
6835;BME280;3455;42.150;24.734;2023-02-11T02:40:41;65242.44;;;-0.99;49.83
6835;BME280;3455;42.150;24.734;2023-02-11T02:43:09;65238.13;;;-1.19;50.08
6835;BME280;3455;42.150;24.734;2023-02-11T02:45:37;65237.22;;;-1.28;50.28
6835;BME280;3455;42.150;24.734;2023-02-11T02:48:05;65268.63;;;-1.00;50.11
6835;BME280;3455;42.150;24.734;2023-02-11T02:50:34;65268.84;;;-1.02;49.86
6835;BME280;3455;42.150;24.734;2023-02-11T02:53:17;65264.34;;;-0.82;49.47
6835;BME280;3455;42.150;24.734;2023-02-11T02:55:59;65307.97;;;-0.83;49.06
6835;BME280;3455;42.150;24.734;2023-02-11T03:01:25;65235.44;;;-1.16;50.37
6835;BME280;3455;42.150;24.734;2023-02-11T03:04:02;65245.53;;;-1.05;49.98
6835;BME280;3455;42.150;24.734;2023-02-11T03:06:34;65279.50;;;-0.90;49.87
6835;BME280;3455;42.150;24.734;2023-02-11T03:09:05;65235.72;;;-0.94;49.72
6835;BME280;3455;42.150;24.734;2023-02-11T03:11:33;65231.38;;;-1.07;50.05
6835;BME280;3455;42.150;24.734;2023-02-11T03:14:05;65229.59;;;-0.95;50.11
6835;BME280;3455;42.150;24.734;2023-02-11T03:16:34;65215.44;;;-1.34;50.52
6835;BME280;3455;42.150;24.734;2023-02-11T03:19:10;65224.41;;;-1.31;51.45
6835;BME280;3455;42.150;24.734;2023-02-11T03:21:40;65186.47;;;-1.49;51.19
6835;BME280;3455;42.150;24.734;2023-02-11T03:24:12;65223.72;;;-1.05;50.33
6835;BME280;3455;42.150;24.734;2023-02-11T03:26:43;65190.44;;;-1.39;51.39
6835;BME280;3455;42.150;24.734;2023-02-11T03:29:16;65210.94;;;-1.07;50.34
6835;BME280;3455;42.150;24.734;2023-02-11T03:31:51;65242.91;;;-0.79;49.65
6835;BME280;3455;42.150;24.734;2023-02-11T03:34:26;65262.88;;;-0.92;50.11
6835;BME280;3455;42.150;24.734;2023-02-11T03:36:58;65221.19;;;-0.98;49.57
6835;BME280;3455;42.150;24.734;2023-02-11T03:39:30;65234.19;;;-1.35;51.03
6835;BME280;3455;42.150;24.734;2023-02-11T03:42:00;65229.69;;;-1.15;50.57
6835;BME280;3455;42.150;24.734;2023-02-11T03:44:31;65278.84;;;-0.77;49.88
6835;BME280;3455;42.150;24.734;2023-02-11T03:47:02;65273.78;;;-0.95;51.68
6835;BME280;3455;42.150;24.734;2023-02-11T03:49:32;65249.75;;;-0.72;51.58
6835;BME280;3455;42.150;24.734;2023-02-11T03:52:02;65273.53;;;-0.87;52.36
6835;BME280;3455;42.150;24.734;2023-02-11T03:54:30;65260.13;;;-0.76;51.63
6835;BME280;3455;42.150;24.734;2023-02-11T03:56:59;65235.16;;;-0.94;52.64
6835;BME280;3455;42.150;24.734;2023-02-11T03:59:27;65187.63;;;-1.48;53.99
6835;BME280;3455;42.150;24.734;2023-02-11T04:01:54;65240.56;;;-1.57;53.74
6835;BME280;3455;42.150;24.734;2023-02-11T04:04:22;65226.81;;;-1.55;53.11
6835;BME280;3455;42.150;24.734;2023-02-11T04:06:50;65231.09;;;-1.29;52.35
6835;BME280;3455;42.150;24.734;2023-02-11T04:09:16;65183.53;;;-1.32;52.56
6835;BME280;3455;42.150;24.734;2023-02-11T04:11:43;65157.34;;;-1.69;54.17
6835;BME280;3455;42.150;24.734;2023-02-11T04:14:10;65217.22;;;-1.46;53.93
6835;BME280;3455;42.150;24.734;2023-02-11T04:16:36;65263.38;;;-1.23;52.70
6835;BME280;3455;42.150;24.734;2023-02-11T04:19:03;65218.25;;;-1.19;53.04
6835;BME280;3455;42.150;24.734;2023-02-11T04:21:30;65223.56;;;-1.09;52.44
6835;BME280;3455;42.150;24.734;2023-02-11T04:23:58;65220.41;;;-1.34;53.15
6835;BME280;3455;42.150;24.734;2023-02-11T04:26:24;65217.78;;;-1.01;51.66
6835;BME280;3455;42.150;24.734;2023-02-11T04:28:51;65231.03;;;-1.16;51.62
6835;BME280;3455;42.150;24.734;2023-02-11T04:31:18;65248.81;;;-1.13;51.65
6835;BME280;3455;42.150;24.734;2023-02-11T04:33:44;65241.66;;;-1.42;52.08
6835;BME280;3455;42.150;24.734;2023-02-11T04:36:11;65201.09;;;-1.34;51.90
6835;BME280;3455;42.150;24.734;2023-02-11T04:38:38;65204.25;;;-1.53;52.13
6835;BME280;3455;42.150;24.734;2023-02-11T04:41:06;65200.19;;;-1.37;52.03
6835;BME280;3455;42.150;24.734;2023-02-11T04:43:33;65177.50;;;-1.46;51.99
6835;BME280;3455;42.150;24.734;2023-02-11T04:46:00;65225.56;;;-1.30;51.91
6835;BME280;3455;42.150;24.734;2023-02-11T04:48:26;65217.09;;;-1.20;51.07
6835;BME280;3455;42.150;24.734;2023-02-11T04:50:53;65227.84;;;-1.28;51.71
6835;BME280;3455;42.150;24.734;2023-02-11T04:53:20;65232.63;;;-1.26;52.08
6835;BME280;3455;42.150;24.734;2023-02-11T04:55:48;65293.69;;;-0.95;51.28
6835;BME280;3455;42.150;24.734;2023-02-11T04:58:16;65209.38;;;-1.04;51.39
6835;BME280;3455;42.150;24.734;2023-02-11T05:00:43;65220.19;;;-1.26;52.45
6835;BME280;3455;42.150;24.734;2023-02-11T05:03:13;65210.19;;;-1.12;52.42
6835;BME280;3455;42.150;24.734;2023-02-11T05:05:40;65218.97;;;-1.13;52.42
6835;BME280;3455;42.150;24.734;2023-02-11T05:08:08;65204.59;;;-1.44;53.23
6835;BME280;3455;42.150;24.734;2023-02-11T05:10:35;65205.97;;;-1.52;54.26
6835;BME280;3455;42.150;24.734;2023-02-11T05:13:03;65275.44;;;-1.32;54.14
6835;BME280;3455;42.150;24.734;2023-02-11T05:15:31;65209.63;;;-1.58;55.52
6835;BME280;3455;42.150;24.734;2023-02-11T05:17:57;65187.13;;;-1.69;55.49
6835;BME280;3455;42.150;24.734;2023-02-11T05:20:24;65173.94;;;-1.67;55.49
6835;BME280;3455;42.150;24.734;2023-02-11T05:22:51;65161.53;;;-2.19;56.00
6835;BME280;3455;42.150;24.734;2023-02-11T05:25:18;65084.81;;;-2.65;56.26
6835;BME280;3455;42.150;24.734;2023-02-11T05:27:45;65102.34;;;-2.67;56.77
6835;BME280;3455;42.150;24.734;2023-02-11T05:30:12;65096.09;;;-2.73;56.60
6835;BME280;3455;42.150;24.734;2023-02-11T05:32:40;65084.66;;;-2.83;57.10
6835;BME280;3455;42.150;24.734;2023-02-11T05:35:07;65049.44;;;-2.97;56.96
6835;BME280;3455;42.150;24.734;2023-02-11T05:37:34;65078.31;;;-2.62;56.28
6835;BME280;3455;42.150;24.734;2023-02-11T05:40:01;65102.34;;;-2.67;55.57
6835;BME280;3455;42.150;24.734;2023-02-11T05:42:27;65109.19;;;-2.61;55.79
6835;BME280;3455;42.150;24.734;2023-02-11T05:44:54;65031.94;;;-3.08;56.61
6835;BME280;3455;42.150;24.734;2023-02-11T05:47:21;65108.47;;;-2.80;57.06
6835;BME280;3455;42.150;24.734;2023-02-11T05:49:49;65097.72;;;-2.45;55.63
6835;BME280;3455;42.150;24.734;2023-02-11T05:52:17;65085.78;;;-2.69;56.08
6835;BME280;3455;42.150;24.734;2023-02-11T05:54:44;65157.56;;;-2.36;54.97
6835;BME280;3455;42.150;24.734;2023-02-11T05:57:11;65164.28;;;-1.83;53.22
6835;BME280;3455;42.150;24.734;2023-02-11T05:59:38;65176.56;;;-2.01;53.19
6835;BME280;3455;42.150;24.734;2023-02-11T06:02:04;65208.53;;;-1.72;53.40
6835;BME280;3455;42.150;24.734;2023-02-11T06:04:32;65144.97;;;-2.33;53.62
6835;BME280;3455;42.150;24.734;2023-02-11T06:07:00;65193.63;;;-1.72;52.57
6835;BME280;3455;42.150;24.734;2023-02-11T06:09:27;65189.06;;;-1.69;51.83
6835;BME280;3455;42.150;24.734;2023-02-11T06:11:54;65187.97;;;-1.90;52.56
6835;BME280;3455;42.150;24.734;2023-02-11T06:14:20;65204.41;;;-1.42;51.26
6835;BME280;3455;42.150;24.734;2023-02-11T06:16:47;65254.19;;;-1.18;50.27
6835;BME280;3455;42.150;24.734;2023-02-11T06:19:14;65216.03;;;-1.34;51.28
6835;BME280;3455;42.150;24.734;2023-02-11T06:21:40;65241.50;;;-1.02;50.62
6835;BME280;3455;42.150;24.734;2023-02-11T06:24:09;65240.38;;;-1.03;50.70
6835;BME280;3455;42.150;24.734;2023-02-11T06:26:35;65283.31;;;-0.91;49.41
6835;BME280;3455;42.150;24.734;2023-02-11T06:29:02;65277.78;;;-0.92;48.95
6835;BME280;3455;42.150;24.734;2023-02-11T06:31:29;65274.22;;;-0.68;48.73
6835;BME280;3455;42.150;24.734;2023-02-11T06:33:55;65283.19;;;-0.65;48.34
6835;BME280;3455;42.150;24.734;2023-02-11T06:36:23;65376.97;;;0.19;48.86
6835;BME280;3455;42.150;24.734;2023-02-11T06:38:50;65551.78;;;2.48;45.41
6835;BME280;3455;42.150;24.734;2023-02-11T06:41:18;65827.13;;;4.81;40.30
6835;BME280;3455;42.150;24.734;2023-02-11T06:43:45;65991.22;;;6.66;35.53
6835;BME280;3455;42.150;24.734;2023-02-11T06:46:12;66066.06;;;7.84;32.35
6835;BME280;3455;42.150;24.734;2023-02-11T06:48:39;66198.06;;;9.11;31.31
6835;BME280;3455;42.150;24.734;2023-02-11T06:51:07;66254.03;;;9.65;28.81
6835;BME280;3455;42.150;24.734;2023-02-11T06:53:36;66321.06;;;10.11;27.42
6835;BME280;3455;42.150;24.734;2023-02-11T06:56:03;66111.22;;;8.15;30.14
6835;BME280;3455;42.150;24.734;2023-02-11T06:58:32;66256.13;;;9.81;28.94
6835;BME280;3455;42.150;24.734;2023-02-11T07:01:02;66342.25;;;10.14;27.68
6835;BME280;3455;42.150;24.734;2023-02-11T07:03:31;66449.44;;;11.62;26.18
6835;BME280;3455;42.150;24.734;2023-02-11T07:05:59;66360.88;;;10.69;26.55
6835;BME280;3455;42.150;24.734;2023-02-11T07:08:25;66431.31;;;11.14;25.93
6835;BME280;3455;42.150;24.734;2023-02-11T07:10:52;66403.16;;;10.82;25.96
6835;BME280;3455;42.150;24.734;2023-02-11T07:13:19;66497.78;;;11.66;25.53
6835;BME280;3455;42.150;24.734;2023-02-11T07:15:47;66511.22;;;11.94;24.84
6835;BME280;3455;42.150;24.734;2023-02-11T07:18:14;66582.09;;;12.53;23.99
6835;BME280;3455;42.150;24.734;2023-02-11T07:20:40;66572.38;;;12.71;23.71
6835;BME280;3455;42.150;24.734;2023-02-11T07:23:07;66451.97;;;11.50;24.47
6835;BME280;3455;42.150;24.734;2023-02-11T07:25:34;66624.59;;;13.04;23.59
6835;BME280;3455;42.150;24.734;2023-02-11T07:28:02;66671.50;;;13.61;22.68
6835;BME280;3455;42.150;24.734;2023-02-11T07:30:29;66612.97;;;13.39;22.33
6835;BME280;3455;42.150;24.734;2023-02-11T07:32:57;66709.28;;;13.93;22.69
6835;BME280;3455;42.150;24.734;2023-02-11T07:35:24;66852.53;;;15.11;21.46
6835;BME280;3455;42.150;24.734;2023-02-11T07:37:51;66834.13;;;14.99;21.27
6835;BME280;3455;42.150;24.734;2023-02-11T07:40:19;66662.94;;;13.58;22.44
6835;BME280;3455;42.150;24.734;2023-02-11T07:42:45;66805.41;;;14.83;21.80
6835;BME280;3455;42.150;24.734;2023-02-11T07:45:12;66728.16;;;14.00;22.28
6835;BME280;3455;42.150;24.734;2023-02-11T07:47:39;66749.22;;;14.17;21.94
6835;BME280;3455;42.150;24.734;2023-02-11T07:50:08;66778.03;;;14.76;21.95
6835;BME280;3455;42.150;24.734;2023-02-11T07:52:35;66763.97;;;14.44;21.84
6835;BME280;3455;42.150;24.734;2023-02-11T07:55:02;66777.84;;;14.67;21.52
6835;BME280;3455;42.150;24.734;2023-02-11T07:57:29;66724.19;;;14.13;22.10
6835;BME280;3455;42.150;24.734;2023-02-11T07:59:55;66720.03;;;14.05;22.39
6835;BME280;3455;42.150;24.734;2023-02-11T08:02:22;66930.38;;;15.66;21.00
6835;BME280;3455;42.150;24.734;2023-02-11T08:04:49;66734.59;;;14.22;22.41
6835;BME280;3455;42.150;24.734;2023-02-11T08:07:18;66823.91;;;14.99;21.48
6835;BME280;3455;42.150;24.734;2023-02-11T08:09:45;66739.19;;;14.37;21.92
6835;BME280;3455;42.150;24.734;2023-02-11T08:12:11;66872.03;;;15.46;21.38
6835;BME280;3455;42.150;24.734;2023-02-11T08:14:38;66914.91;;;15.73;21.34
6835;BME280;3455;42.150;24.734;2023-02-11T08:17:05;66986.44;;;16.50;20.62
6835;BME280;3455;42.150;24.734;2023-02-11T08:19:32;66902.53;;;15.91;21.11
6835;BME280;3455;42.150;24.734;2023-02-11T08:21:58;67135.31;;;17.61;19.72
6835;BME280;3455;42.150;24.734;2023-02-11T08:24:27;67033.75;;;16.94;20.03
6835;BME280;3455;42.150;24.734;2023-02-11T08:26:54;67052.66;;;17.29;20.05
6835;BME280;3455;42.150;24.734;2023-02-11T08:29:21;66911.41;;;15.81;21.41
6835;BME280;3455;42.150;24.734;2023-02-11T08:31:48;66924.16;;;15.92;21.58
6835;BME280;3455;42.150;24.734;2023-02-11T08:34:15;67103.69;;;17.47;19.80
6835;BME280;3455;42.150;24.734;2023-02-11T08:36:44;67129.19;;;17.97;19.63
6835;BME280;3455;42.150;24.734;2023-02-11T08:39:13;67286.31;;;18.99;19.46
6835;BME280;3455;42.150;24.734;2023-02-11T08:41:42;67243.50;;;18.71;19.15
6835;BME280;3455;42.150;24.734;2023-02-11T08:44:09;67369.28;;;19.68;18.03
6835;BME280;3455;42.150;24.734;2023-02-11T08:46:35;67265.13;;;19.10;18.64
6835;BME280;3455;42.150;24.734;2023-02-11T08:49:02;67345.44;;;19.74;18.26
6835;BME280;3455;42.150;24.734;2023-02-11T08:51:29;67464.97;;;20.39;18.09
6835;BME280;3455;42.150;24.734;2023-02-11T08:53:56;67326.97;;;19.67;17.80
6835;BME280;3455;42.150;24.734;2023-02-11T08:56:23;67172.94;;;18.49;18.48
6835;BME280;3455;42.150;24.734;2023-02-11T08:58:52;67470.03;;;20.66;17.42
6835;BME280;3455;42.150;24.734;2023-02-11T09:01:21;67313.69;;;19.28;18.12
6835;BME280;3455;42.150;24.734;2023-02-11T09:03:48;67515.66;;;21.20;16.96
6835;BME280;3455;42.150;24.734;2023-02-11T09:06:15;67558.22;;;21.62;16.64
6835;BME280;3455;42.150;24.734;2023-02-11T09:08:45;67530.34;;;21.26;16.35
6835;BME280;3455;42.150;24.734;2023-02-11T09:11:13;67439.28;;;20.43;16.80
6835;BME280;3455;42.150;24.734;2023-02-11T09:13:41;67457.38;;;20.16;17.26
6835;BME280;3455;42.150;24.734;2023-02-11T09:16:16;67515.06;;;21.04;16.94
6835;BME280;3455;42.150;24.734;2023-02-11T09:18:43;67434.75;;;20.44;16.66
6835;BME280;3455;42.150;24.734;2023-02-11T09:21:10;67581.59;;;21.55;16.08
6835;BME280;3455;42.150;24.734;2023-02-11T09:23:37;67513.44;;;20.91;16.20
6835;BME280;3455;42.150;24.734;2023-02-11T09:26:07;67442.38;;;20.87;16.60
6835;BME280;3455;42.150;24.734;2023-02-11T09:31:04;67627.88;;;22.14;15.69
6835;BME280;3455;42.150;24.734;2023-02-11T09:33:32;67601.28;;;22.00;16.39
6835;BME280;3455;42.150;24.734;2023-02-11T09:35:59;67591.88;;;21.87;15.82
6835;BME280;3455;42.150;24.734;2023-02-11T09:38:26;67494.53;;;21.24;16.43
6835;BME280;3455;42.150;24.734;2023-02-11T09:40:53;67604.09;;;21.98;15.79
6835;BME280;3455;42.150;24.734;2023-02-11T09:43:22;67584.16;;;21.87;15.77
6835;BME280;3455;42.150;24.734;2023-02-11T09:45:53;67720.47;;;22.60;15.63
6835;BME280;3455;42.150;24.734;2023-02-11T09:48:21;67768.38;;;23.06;14.83
6835;BME280;3455;42.150;24.734;2023-02-11T09:50:52;67522.78;;;21.35;16.21
6835;BME280;3455;42.150;24.734;2023-02-11T09:53:23;67682.34;;;22.44;15.30
6835;BME280;3455;42.150;24.734;2023-02-11T09:55:52;67864.28;;;23.73;14.95
6835;BME280;3455;42.150;24.734;2023-02-11T09:58:24;67872.00;;;24.04;14.12
6835;BME280;3455;42.150;24.734;2023-02-11T10:00:58;67703.31;;;22.63;14.86
6835;BME280;3455;42.150;24.734;2023-02-11T10:03:48;67697.47;;;22.73;15.29
6835;BME280;3455;42.150;24.734;2023-02-11T10:06:34;67598.81;;;21.89;16.08
6835;BME280;3455;42.150;24.734;2023-02-11T10:09:11;67701.66;;;22.50;16.26
6835;BME280;3455;42.150;24.734;2023-02-11T10:11:50;67583.66;;;21.75;15.65
6835;BME280;3455;42.150;24.734;2023-02-11T10:14:27;67588.69;;;21.66;15.75
6835;BME280;3455;42.150;24.734;2023-02-11T10:17:08;67691.69;;;22.37;15.14
6835;BME280;3455;42.150;24.734;2023-02-11T10:19:53;67843.44;;;23.63;14.39
6835;BME280;3455;42.150;24.734;2023-02-11T10:22:28;67912.88;;;24.24;14.44
6835;BME280;3455;42.150;24.734;2023-02-11T10:24:57;67908.78;;;24.21;14.21
6835;BME280;3455;42.150;24.734;2023-02-11T10:27:27;67831.78;;;23.53;14.13
6835;BME280;3455;42.150;24.734;2023-02-11T10:29:58;67788.19;;;23.60;14.45
6835;BME280;3455;42.150;24.734;2023-02-11T10:32:32;67993.19;;;24.97;14.26
6835;BME280;3455;42.150;24.734;2023-02-11T10:35:03;67799.53;;;23.52;13.91
6835;BME280;3455;42.150;24.734;2023-02-11T10:37:37;67895.16;;;23.95;13.58
6835;BME280;3455;42.150;24.734;2023-02-11T10:40:05;67694.44;;;22.82;14.24
6835;BME280;3455;42.150;24.734;2023-02-11T10:42:34;67705.13;;;22.69;14.19
6835;BME280;3455;42.150;24.734;2023-02-11T10:45:03;67704.72;;;22.62;14.20
6835;BME280;3455;42.150;24.734;2023-02-11T10:47:35;67855.91;;;23.88;13.61
6835;BME280;3455;42.150;24.734;2023-02-11T10:50:17;67834.75;;;23.60;14.50
6835;BME280;3455;42.150;24.734;2023-02-11T10:52:45;67801.16;;;23.44;13.56
6835;BME280;3455;42.150;24.734;2023-02-11T10:55:16;67697.22;;;22.76;14.43
6835;BME280;3455;42.150;24.734;2023-02-11T10:57:52;67859.63;;;23.68;14.80
6835;BME280;3455;42.150;24.734;2023-02-11T11:00:28;67974.03;;;24.69;13.79
6835;BME280;3455;42.150;24.734;2023-02-11T11:02:59;67947.22;;;24.66;13.62
6835;BME280;3455;42.150;24.734;2023-02-11T11:05:30;67977.91;;;24.59;12.81
6835;BME280;3455;42.150;24.734;2023-02-11T11:08:01;67675.88;;;22.34;14.70
6835;BME280;3455;42.150;24.734;2023-02-11T11:10:40;67702.00;;;22.52;15.52
6835;BME280;3455;42.150;24.734;2023-02-11T11:13:25;67973.50;;;24.73;13.54
6835;BME280;3455;42.150;24.734;2023-02-11T11:16:14;68005.16;;;24.90;13.29
6835;BME280;3455;42.150;24.734;2023-02-11T11:18:43;68113.66;;;25.92;12.57
6835;BME280;3455;42.150;24.734;2023-02-11T11:21:13;68177.91;;;26.02;11.83
6835;BME280;3455;42.150;24.734;2023-02-11T11:23:51;68078.53;;;25.77;12.04
6835;BME280;3455;42.150;24.734;2023-02-11T11:26:19;68115.66;;;25.71;11.96
6835;BME280;3455;42.150;24.734;2023-02-11T11:28:58;68033.59;;;25.21;12.59
6835;BME280;3455;42.150;24.734;2023-02-11T11:31:29;68180.66;;;26.32;11.36
6835;BME280;3455;42.150;24.734;2023-02-11T11:33:59;68091.53;;;25.77;11.62
6835;BME280;3455;42.150;24.734;2023-02-11T11:36:34;68138.03;;;25.99;11.53
6835;BME280;3455;42.150;24.734;2023-02-11T11:39:16;67921.78;;;24.41;11.88
6835;BME280;3455;42.150;24.734;2023-02-11T11:41:52;67908.66;;;24.12;11.70
6835;BME280;3455;42.150;24.734;2023-02-11T11:44:30;67849.41;;;23.78;12.56
6835;BME280;3455;42.150;24.734;2023-02-11T11:47:18;68134.00;;;26.00;11.86
6835;BME280;3455;42.150;24.734;2023-02-11T11:49:50;68002.47;;;25.21;10.96
6835;BME280;3455;42.150;24.734;2023-02-11T11:52:34;68111.19;;;25.80;11.50
6835;BME280;3455;42.150;24.734;2023-02-11T11:55:10;68111.84;;;25.86;11.22
6835;BME280;3455;42.150;24.734;2023-02-11T11:57:38;67901.69;;;24.46;12.09
6835;BME280;3455;42.150;24.734;2023-02-11T12:00:13;68008.69;;;25.13;11.54
6835;BME280;3455;42.150;24.734;2023-02-11T12:03:05;68221.19;;;26.40;10.73
6835;BME280;3455;42.150;24.734;2023-02-11T12:05:36;68089.09;;;25.50;11.33
6835;BME280;3455;42.150;24.734;2023-02-11T12:08:14;67812.88;;;23.59;12.04
6835;BME280;3455;42.150;24.734;2023-02-11T12:10:56;67823.78;;;23.76;11.77
6835;BME280;3455;42.150;24.734;2023-02-11T12:13:44;68000.50;;;25.06;11.26
6835;BME280;3455;42.150;24.734;2023-02-11T12:16:20;68044.91;;;25.45;11.46
6835;BME280;3455;42.150;24.734;2023-02-11T12:19:26;67925.69;;;24.52;11.06
6835;BME280;3455;42.150;24.734;2023-02-11T12:22:05;68050.31;;;25.59;10.91
6835;BME280;3455;42.150;24.734;2023-02-11T12:24:51;68182.19;;;26.40;10.66
6835;BME280;3455;42.150;24.734;2023-02-11T12:27:30;68290.91;;;27.06;10.43
6835;BME280;3455;42.150;24.734;2023-02-11T12:30:11;68200.19;;;26.27;10.61
6835;BME280;3455;42.150;24.734;2023-02-11T12:32:47;68067.38;;;25.83;10.65
6835;BME280;3455;42.150;24.734;2023-02-11T12:35:26;67874.56;;;24.04;11.37
6835;BME280;3455;42.150;24.734;2023-02-11T12:38:13;68066.97;;;25.55;10.20
6835;BME280;3455;42.150;24.734;2023-02-11T12:40:45;67974.81;;;24.83;10.66
6835;BME280;3455;42.150;24.734;2023-02-11T12:43:21;67924.91;;;24.58;10.72
6835;BME280;3455;42.150;24.734;2023-02-11T12:48:58;67984.56;;;24.99;11.34
6835;BME280;3455;42.150;24.734;2023-02-11T12:51:40;67870.34;;;24.28;11.24
6835;BME280;3455;42.150;24.734;2023-02-11T12:54:23;67920.06;;;24.44;11.57
6835;BME280;3455;42.150;24.734;2023-02-11T12:56:56;67845.41;;;23.79;11.07
6835;BME280;3455;42.150;24.734;2023-02-11T12:59:43;67800.06;;;23.48;11.29
6835;BME280;3455;42.150;24.734;2023-02-11T13:02:19;68062.75;;;25.42;10.58
6835;BME280;3455;42.150;24.734;2023-02-11T13:04:49;67802.53;;;23.59;11.86
6835;BME280;3455;42.150;24.734;2023-02-11T13:07:22;67716.91;;;22.88;11.51
6835;BME280;3455;42.150;24.734;2023-02-11T13:09:55;67549.78;;;21.73;12.09
6835;BME280;3455;42.150;24.734;2023-02-11T13:12:28;67715.91;;;22.97;11.96
6835;BME280;3455;42.150;24.734;2023-02-11T13:15:15;67778.72;;;23.43;11.09
6835;BME280;3455;42.150;24.734;2023-02-11T13:17:49;68039.66;;;25.40;10.12
6835;BME280;3455;42.150;24.734;2023-02-11T13:20:25;67938.25;;;24.65;10.17
6835;BME280;3455;42.150;24.734;2023-02-11T13:22:58;67733.56;;;23.21;11.24
6835;BME280;3455;42.150;24.734;2023-02-11T13:25:30;67692.75;;;22.85;11.42
6835;BME280;3455;42.150;24.734;2023-02-11T13:28:08;67815.34;;;23.70;11.14
6835;BME280;3455;42.150;24.734;2023-02-11T13:30:41;67803.06;;;23.55;10.91
6835;BME280;3455;42.150;24.734;2023-02-11T13:33:30;67921.69;;;24.37;10.70
6835;BME280;3455;42.150;24.734;2023-02-11T13:36:19;67824.22;;;23.83;11.08
6835;BME280;3455;42.150;24.734;2023-02-11T13:38:52;67782.88;;;23.51;11.74
6835;BME280;3455;42.150;24.734;2023-02-11T13:41:23;67751.69;;;23.42;11.40
6835;BME280;3455;42.150;24.734;2023-02-11T13:44:25;67600.63;;;21.79;11.47
6835;BME280;3455;42.150;24.734;2023-02-11T13:46:58;67281.38;;;19.40;13.35